sensor_id;sensor_type;location;lat;lon;timestamp;P1;durP1;ratioP1;P2;durP2;ratioP2
10537;SDS011;5317;49.048;8.468;2022-12-18T00:00:01;22.63;;;18.23;;
10537;SDS011;5317;49.048;8.468;2022-12-18T00:02:30;23.60;;;18.77;;
10537;SDS011;5317;49.048;8.468;2022-12-18T00:05:00;22.30;;;18.33;;
10537;SDS011;5317;49.048;8.468;2022-12-18T00:07:27;25.47;;;18.43;;
10537;SDS011;5317;49.048;8.468;2022-12-18T00:09:55;20.47;;;16.73;;
10537;SDS011;5317;49.048;8.468;2022-12-18T00:12:22;21.63;;;17.60;;
10537;SDS011;5317;49.048;8.468;2022-12-18T00:14:50;22.70;;;17.47;;
10537;SDS011;5317;49.048;8.468;2022-12-18T00:17:18;20.43;;;16.63;;
10537;SDS011;5317;49.048;8.468;2022-12-18T00:19:48;18.60;;;16.27;;
10537;SDS011;5317;49.048;8.468;2022-12-18T00:22:15;18.83;;;16.10;;
10537;SDS011;5317;49.048;8.468;2022-12-18T00:24:42;22.63;;;16.67;;
10537;SDS011;5317;49.048;8.468;2022-12-18T00:27:09;20.93;;;16.93;;
10537;SDS011;5317;49.048;8.468;2022-12-18T00:29:39;20.33;;;16.80;;
10537;SDS011;5317;49.048;8.468;2022-12-18T00:32:08;18.77;;;15.63;;
10537;SDS011;5317;49.048;8.468;2022-12-18T00:34:35;19.03;;;15.20;;
10537;SDS011;5317;49.048;8.468;2022-12-18T00:37:03;19.43;;;16.23;;
10537;SDS011;5317;49.048;8.468;2022-12-18T00:39:30;19.70;;;16.03;;
10537;SDS011;5317;49.048;8.468;2022-12-18T00:41:57;18.13;;;15.27;;
10537;SDS011;5317;49.048;8.468;2022-12-18T00:44:42;17.33;;;14.80;;
10537;SDS011;5317;49.048;8.468;2022-12-18T00:47:10;16.60;;;14.80;;
10537;SDS011;5317;49.048;8.468;2022-12-18T00:49:37;17.30;;;14.83;;
10537;SDS011;5317;49.048;8.468;2022-12-18T00:52:07;18.03;;;14.67;;
10537;SDS011;5317;49.048;8.468;2022-12-18T00:54:35;18.87;;;14.70;;
10537;SDS011;5317;49.048;8.468;2022-12-18T00:57:02;18.47;;;15.53;;
10537;SDS011;5317;49.048;8.468;2022-12-18T00:59:29;19.33;;;14.83;;
10537;SDS011;5317;49.048;8.468;2022-12-18T01:01:56;17.07;;;15.00;;
10537;SDS011;5317;49.048;8.468;2022-12-18T01:04:25;16.30;;;14.03;;
10537;SDS011;5317;49.048;8.468;2022-12-18T01:06:53;16.87;;;15.07;;
10537;SDS011;5317;49.048;8.468;2022-12-18T01:09:21;17.73;;;14.23;;
10537;SDS011;5317;49.048;8.468;2022-12-18T01:11:48;17.57;;;14.77;;
10537;SDS011;5317;49.048;8.468;2022-12-18T01:14:15;16.37;;;14.67;;
10537;SDS011;5317;49.048;8.468;2022-12-18T01:16:42;16.30;;;14.07;;
10537;SDS011;5317;49.048;8.468;2022-12-18T01:19:09;18.70;;;14.83;;
10537;SDS011;5317;49.048;8.468;2022-12-18T01:21:38;17.10;;;14.37;;
10537;SDS011;5317;49.048;8.468;2022-12-18T01:24:05;16.20;;;14.07;;
10537;SDS011;5317;49.048;8.468;2022-12-18T01:26:33;16.73;;;13.67;;
10537;SDS011;5317;49.048;8.468;2022-12-18T01:29:00;15.33;;;13.73;;
10537;SDS011;5317;49.048;8.468;2022-12-18T01:31:28;16.47;;;13.67;;
10537;SDS011;5317;49.048;8.468;2022-12-18T01:33:57;16.93;;;13.27;;
10537;SDS011;5317;49.048;8.468;2022-12-18T01:36:29;16.13;;;13.57;;
10537;SDS011;5317;49.048;8.468;2022-12-18T01:39:00;14.63;;;13.03;;
10537;SDS011;5317;49.048;8.468;2022-12-18T01:41:33;14.57;;;12.37;;
10537;SDS011;5317;49.048;8.468;2022-12-18T01:47:30;14.37;;;12.33;;
10537;SDS011;5317;49.048;8.468;2022-12-18T01:50:03;13.33;;;11.73;;
10537;SDS011;5317;49.048;8.468;2022-12-18T01:52:35;15.03;;;13.17;;
10537;SDS011;5317;49.048;8.468;2022-12-18T01:55:06;16.03;;;13.47;;
10537;SDS011;5317;49.048;8.468;2022-12-18T01:57:35;15.37;;;13.13;;
10537;SDS011;5317;49.048;8.468;2022-12-18T02:00:05;13.60;;;12.20;;
10537;SDS011;5317;49.048;8.468;2022-12-18T02:02:40;14.40;;;12.90;;
10537;SDS011;5317;49.048;8.468;2022-12-18T02:05:09;13.97;;;12.43;;
10537;SDS011;5317;49.048;8.468;2022-12-18T02:07:42;14.73;;;12.47;;
10537;SDS011;5317;49.048;8.468;2022-12-18T02:10:27;13.60;;;11.93;;
10537;SDS011;5317;49.048;8.468;2022-12-18T02:13:03;16.23;;;12.77;;
10537;SDS011;5317;49.048;8.468;2022-12-18T02:15:40;14.87;;;12.60;;
10537;SDS011;5317;49.048;8.468;2022-12-18T02:18:18;14.23;;;12.00;;
10537;SDS011;5317;49.048;8.468;2022-12-18T02:20:52;13.67;;;12.23;;
10537;SDS011;5317;49.048;8.468;2022-12-18T02:23:32;13.73;;;11.77;;
10537;SDS011;5317;49.048;8.468;2022-12-18T02:26:19;12.43;;;10.60;;
10537;SDS011;5317;49.048;8.468;2022-12-18T02:28:55;13.07;;;11.67;;
10537;SDS011;5317;49.048;8.468;2022-12-18T02:31:30;13.47;;;11.97;;
10537;SDS011;5317;49.048;8.468;2022-12-18T02:34:05;14.43;;;12.83;;
10537;SDS011;5317;49.048;8.468;2022-12-18T02:36:36;12.70;;;11.17;;
10537;SDS011;5317;49.048;8.468;2022-12-18T02:39:09;12.23;;;10.93;;
10537;SDS011;5317;49.048;8.468;2022-12-18T02:41:41;12.70;;;11.00;;
10537;SDS011;5317;49.048;8.468;2022-12-18T02:44:09;13.23;;;10.93;;
10537;SDS011;5317;49.048;8.468;2022-12-18T02:46:39;12.10;;;10.87;;
10537;SDS011;5317;49.048;8.468;2022-12-18T02:49:13;14.53;;;12.03;;
10537;SDS011;5317;49.048;8.468;2022-12-18T02:52:00;12.73;;;11.17;;
10537;SDS011;5317;49.048;8.468;2022-12-18T02:54:51;12.67;;;11.37;;
10537;SDS011;5317;49.048;8.468;2022-12-18T02:57:30;12.00;;;10.70;;
10537;SDS011;5317;49.048;8.468;2022-12-18T03:00:06;12.20;;;10.90;;
10537;SDS011;5317;49.048;8.468;2022-12-18T03:02:41;12.83;;;10.83;;
10537;SDS011;5317;49.048;8.468;2022-12-18T03:05:16;12.70;;;10.90;;
10537;SDS011;5317;49.048;8.468;2022-12-18T03:07:49;11.37;;;10.17;;
10537;SDS011;5317;49.048;8.468;2022-12-18T03:10:25;11.73;;;10.53;;
10537;SDS011;5317;49.048;8.468;2022-12-18T03:12:58;12.57;;;11.27;;
10537;SDS011;5317;49.048;8.468;2022-12-18T03:15:31;11.77;;;10.40;;
10537;SDS011;5317;49.048;8.468;2022-12-18T03:18:04;12.87;;;11.30;;
10537;SDS011;5317;49.048;8.468;2022-12-18T03:20:39;11.77;;;10.57;;
10537;SDS011;5317;49.048;8.468;2022-12-18T03:23:11;12.50;;;11.13;;
10537;SDS011;5317;49.048;8.468;2022-12-18T03:25:44;11.43;;;10.23;;
10537;SDS011;5317;49.048;8.468;2022-12-18T03:28:15;12.00;;;10.77;;
10537;SDS011;5317;49.048;8.468;2022-12-18T03:30:49;12.97;;;10.73;;
10537;SDS011;5317;49.048;8.468;2022-12-18T03:33:24;11.07;;;9.97;;
10537;SDS011;5317;49.048;8.468;2022-12-18T03:35:57;11.43;;;10.20;;
10537;SDS011;5317;49.048;8.468;2022-12-18T03:38:25;11.17;;;10.07;;
10537;SDS011;5317;49.048;8.468;2022-12-18T03:41:02;12.20;;;10.53;;
10537;SDS011;5317;49.048;8.468;2022-12-18T03:43:49;11.00;;;9.80;;
10537;SDS011;5317;49.048;8.468;2022-12-18T03:46:28;12.73;;;10.67;;
10537;SDS011;5317;49.048;8.468;2022-12-18T03:49:08;11.50;;;10.30;;
10537;SDS011;5317;49.048;8.468;2022-12-18T03:51:42;10.80;;;9.70;;
10537;SDS011;5317;49.048;8.468;2022-12-18T03:54:17;11.37;;;9.93;;
10537;SDS011;5317;49.048;8.468;2022-12-18T03:56:46;10.53;;;9.43;;
10537;SDS011;5317;49.048;8.468;2022-12-18T03:59:22;10.80;;;9.73;;
10537;SDS011;5317;49.048;8.468;2022-12-18T04:01:53;11.40;;;10.20;;
10537;SDS011;5317;49.048;8.468;2022-12-18T04:04:25;10.90;;;9.80;;
10537;SDS011;5317;49.048;8.468;2022-12-18T04:06:54;10.53;;;9.43;;
10537;SDS011;5317;49.048;8.468;2022-12-18T04:09:23;10.57;;;9.47;;
10537;SDS011;5317;49.048;8.468;2022-12-18T04:11:52;11.90;;;10.40;;
10537;SDS011;5317;49.048;8.468;2022-12-18T04:14:19;10.67;;;9.57;;
10537;SDS011;5317;49.048;8.468;2022-12-18T04:16:48;10.97;;;9.67;;
10537;SDS011;5317;49.048;8.468;2022-12-18T04:19:15;10.97;;;9.87;;
10537;SDS011;5317;49.048;8.468;2022-12-18T04:21:42;11.27;;;9.80;;
10537;SDS011;5317;49.048;8.468;2022-12-18T04:24:10;11.77;;;10.57;;
10537;SDS011;5317;49.048;8.468;2022-12-18T04:26:37;12.40;;;10.53;;
10537;SDS011;5317;49.048;8.468;2022-12-18T04:29:04;13.33;;;9.87;;
10537;SDS011;5317;49.048;8.468;2022-12-18T04:31:31;10.60;;;9.60;;
10537;SDS011;5317;49.048;8.468;2022-12-18T04:34:00;10.27;;;9.23;;
10537;SDS011;5317;49.048;8.468;2022-12-18T04:36:28;10.43;;;9.33;;
10537;SDS011;5317;49.048;8.468;2022-12-18T04:38:55;11.13;;;10.00;;
10537;SDS011;5317;49.048;8.468;2022-12-18T04:41:22;10.53;;;9.30;;
10537;SDS011;5317;49.048;8.468;2022-12-18T04:43:49;11.17;;;10.00;;
10537;SDS011;5317;49.048;8.468;2022-12-18T04:46:17;10.57;;;9.50;;
10537;SDS011;5317;49.048;8.468;2022-12-18T04:48:44;10.83;;;9.40;;
10537;SDS011;5317;49.048;8.468;2022-12-18T04:51:14;10.27;;;9.23;;
10537;SDS011;5317;49.048;8.468;2022-12-18T04:53:41;10.80;;;9.60;;
10537;SDS011;5317;49.048;8.468;2022-12-18T04:56:09;10.60;;;9.23;;
10537;SDS011;5317;49.048;8.468;2022-12-18T04:58:39;12.00;;;9.00;;
10537;SDS011;5317;49.048;8.468;2022-12-18T05:01:09;10.33;;;9.23;;
10537;SDS011;5317;49.048;8.468;2022-12-18T05:03:37;10.67;;;9.57;;
10537;SDS011;5317;49.048;8.468;2022-12-18T05:06:05;11.17;;;9.20;;
10537;SDS011;5317;49.048;8.468;2022-12-18T05:08:35;9.80;;;8.80;;
10537;SDS011;5317;49.048;8.468;2022-12-18T05:11:03;11.00;;;9.73;;
10537;SDS011;5317;49.048;8.468;2022-12-18T05:13:33;10.40;;;9.20;;
10537;SDS011;5317;49.048;8.468;2022-12-18T05:16:01;9.40;;;8.50;;
10537;SDS011;5317;49.048;8.468;2022-12-18T05:18:29;9.77;;;8.77;;
10537;SDS011;5317;49.048;8.468;2022-12-18T05:20:57;10.30;;;9.27;;
10537;SDS011;5317;49.048;8.468;2022-12-18T05:23:24;10.57;;;9.57;;
10537;SDS011;5317;49.048;8.468;2022-12-18T05:25:55;10.40;;;9.30;;
10537;SDS011;5317;49.048;8.468;2022-12-18T05:28:25;10.17;;;8.67;;
10537;SDS011;5317;49.048;8.468;2022-12-18T05:30:55;9.97;;;8.97;;
10537;SDS011;5317;49.048;8.468;2022-12-18T05:33:25;10.27;;;9.20;;
10537;SDS011;5317;49.048;8.468;2022-12-18T05:35:57;9.47;;;8.53;;
10537;SDS011;5317;49.048;8.468;2022-12-18T05:38:26;10.07;;;9.07;;
10537;SDS011;5317;49.048;8.468;2022-12-18T05:40:56;9.43;;;8.33;;
10537;SDS011;5317;49.048;8.468;2022-12-18T05:43:24;9.93;;;8.93;;
10537;SDS011;5317;49.048;8.468;2022-12-18T05:45:53;10.10;;;8.77;;
10537;SDS011;5317;49.048;8.468;2022-12-18T05:48:21;10.33;;;9.27;;
10537;SDS011;5317;49.048;8.468;2022-12-18T05:50:49;9.77;;;8.77;;
10537;SDS011;5317;49.048;8.468;2022-12-18T05:53:18;9.83;;;8.83;;
10537;SDS011;5317;49.048;8.468;2022-12-18T05:55:47;10.23;;;9.20;;
10537;SDS011;5317;49.048;8.468;2022-12-18T05:58:15;10.23;;;9.13;;
10537;SDS011;5317;49.048;8.468;2022-12-18T06:00:43;9.40;;;8.43;;
10537;SDS011;5317;49.048;8.468;2022-12-18T06:03:12;9.47;;;8.57;;
10537;SDS011;5317;49.048;8.468;2022-12-18T06:05:41;9.33;;;8.43;;
10537;SDS011;5317;49.048;8.468;2022-12-18T06:08:10;10.63;;;9.63;;
10537;SDS011;5317;49.048;8.468;2022-12-18T06:10:38;10.37;;;9.20;;
10537;SDS011;5317;49.048;8.468;2022-12-18T06:13:06;10.10;;;9.10;;
10537;SDS011;5317;49.048;8.468;2022-12-18T06:15:36;9.70;;;8.70;;
10537;SDS011;5317;49.048;8.468;2022-12-18T06:18:04;10.37;;;9.30;;
10537;SDS011;5317;49.048;8.468;2022-12-18T06:20:32;9.67;;;8.77;;
10537;SDS011;5317;49.048;8.468;2022-12-18T06:23:01;9.63;;;8.53;;
10537;SDS011;5317;49.048;8.468;2022-12-18T06:25:29;9.80;;;8.57;;
10537;SDS011;5317;49.048;8.468;2022-12-18T06:27:57;9.87;;;8.90;;
10537;SDS011;5317;49.048;8.468;2022-12-18T06:30:24;9.20;;;8.30;;
10537;SDS011;5317;49.048;8.468;2022-12-18T06:32:53;9.40;;;8.43;;
10537;SDS011;5317;49.048;8.468;2022-12-18T06:35:21;9.33;;;8.43;;
10537;SDS011;5317;49.048;8.468;2022-12-18T06:37:49;10.00;;;8.90;;
10537;SDS011;5317;49.048;8.468;2022-12-18T06:40:16;9.97;;;8.87;;
10537;SDS011;5317;49.048;8.468;2022-12-18T06:42:44;9.17;;;8.27;;
10537;SDS011;5317;49.048;8.468;2022-12-18T06:45:11;9.70;;;8.70;;
10537;SDS011;5317;49.048;8.468;2022-12-18T06:47:38;9.27;;;8.37;;
10537;SDS011;5317;49.048;8.468;2022-12-18T06:50:07;9.70;;;8.70;;
10537;SDS011;5317;49.048;8.468;2022-12-18T06:52:35;9.00;;;8.03;;
10537;SDS011;5317;49.048;8.468;2022-12-18T06:55:07;10.03;;;9.03;;
10537;SDS011;5317;49.048;8.468;2022-12-18T06:57:38;9.43;;;8.43;;
10537;SDS011;5317;49.048;8.468;2022-12-18T07:00:06;8.93;;;8.03;;
10537;SDS011;5317;49.048;8.468;2022-12-18T07:02:34;9.10;;;8.20;;
10537;SDS011;5317;49.048;8.468;2022-12-18T07:05:01;9.47;;;8.13;;
10537;SDS011;5317;49.048;8.468;2022-12-18T07:07:31;9.63;;;8.63;;
10537;SDS011;5317;49.048;8.468;2022-12-18T07:10:00;10.03;;;9.03;;
10537;SDS011;5317;49.048;8.468;2022-12-18T07:12:27;9.07;;;8.17;;
10537;SDS011;5317;49.048;8.468;2022-12-18T07:14:54;9.93;;;8.93;;
10537;SDS011;5317;49.048;8.468;2022-12-18T07:17:21;8.90;;;8.00;;
10537;SDS011;5317;49.048;8.468;2022-12-18T07:19:49;9.40;;;8.50;;
10537;SDS011;5317;49.048;8.468;2022-12-18T07:22:16;8.73;;;7.93;;
10537;SDS011;5317;49.048;8.468;2022-12-18T07:24:45;9.90;;;8.90;;
10537;SDS011;5317;49.048;8.468;2022-12-18T07:27:12;9.33;;;8.33;;
10537;SDS011;5317;49.048;8.468;2022-12-18T07:29:39;8.73;;;7.83;;
10537;SDS011;5317;49.048;8.468;2022-12-18T07:32:06;9.50;;;8.50;;
10537;SDS011;5317;49.048;8.468;2022-12-18T07:34:34;9.57;;;8.63;;
10537;SDS011;5317;49.048;8.468;2022-12-18T07:37:01;8.77;;;7.87;;
10537;SDS011;5317;49.048;8.468;2022-12-18T07:39:29;9.73;;;8.27;;
10537;SDS011;5317;49.048;8.468;2022-12-18T07:41:58;8.73;;;7.93;;
10537;SDS011;5317;49.048;8.468;2022-12-18T07:44:43;8.83;;;7.90;;
10537;SDS011;5317;49.048;8.468;2022-12-18T07:47:11;9.40;;;8.50;;
10537;SDS011;5317;49.048;8.468;2022-12-18T07:49:38;9.77;;;8.77;;
10537;SDS011;5317;49.048;8.468;2022-12-18T07:52:09;9.50;;;8.43;;
10537;SDS011;5317;49.048;8.468;2022-12-18T07:54:37;8.73;;;7.40;;
10537;SDS011;5317;49.048;8.468;2022-12-18T07:57:06;9.97;;;8.07;;
10537;SDS011;5317;49.048;8.468;2022-12-18T07:59:34;10.17;;;7.87;;
10537;SDS011;5317;49.048;8.468;2022-12-18T08:02:02;9.27;;;8.13;;
10537;SDS011;5317;49.048;8.468;2022-12-18T08:04:29;9.23;;;8.07;;
10537;SDS011;5317;49.048;8.468;2022-12-18T08:06:56;11.53;;;9.13;;
10537;SDS011;5317;49.048;8.468;2022-12-18T08:09:23;9.47;;;8.47;;
10537;SDS011;5317;49.048;8.468;2022-12-18T08:11:51;11.37;;;9.90;;
10537;SDS011;5317;49.048;8.468;2022-12-18T08:14:19;11.43;;;10.23;;
10537;SDS011;5317;49.048;8.468;2022-12-18T08:16:47;20.67;;;9.50;;
10537;SDS011;5317;49.048;8.468;2022-12-18T08:19:15;11.33;;;8.93;;
10537;SDS011;5317;49.048;8.468;2022-12-18T08:21:42;10.93;;;8.80;;
10537;SDS011;5317;49.048;8.468;2022-12-18T08:24:09;9.03;;;8.07;;
10537;SDS011;5317;49.048;8.468;2022-12-18T08:26:37;9.60;;;8.60;;
10537;SDS011;5317;49.048;8.468;2022-12-18T08:29:05;9.30;;;8.27;;
10537;SDS011;5317;49.048;8.468;2022-12-18T08:31:33;9.13;;;8.17;;
10537;SDS011;5317;49.048;8.468;2022-12-18T08:34:01;10.63;;;8.03;;
10537;SDS011;5317;49.048;8.468;2022-12-18T08:36:28;11.57;;;8.33;;
10537;SDS011;5317;49.048;8.468;2022-12-18T08:38:56;10.73;;;8.50;;
10537;SDS011;5317;49.048;8.468;2022-12-18T08:41:23;10.50;;;8.10;;
10537;SDS011;5317;49.048;8.468;2022-12-18T08:43:51;14.43;;;8.33;;
10537;SDS011;5317;49.048;8.468;2022-12-18T08:46:38;11.30;;;8.50;;
10537;SDS011;5317;49.048;8.468;2022-12-18T08:49:07;10.23;;;8.73;;
10537;SDS011;5317;49.048;8.468;2022-12-18T08:51:36;8.50;;;7.67;;
10537;SDS011;5317;49.048;8.468;2022-12-18T08:54:04;9.43;;;8.53;;
10537;SDS011;5317;49.048;8.468;2022-12-18T08:56:32;10.03;;;7.23;;
10537;SDS011;5317;49.048;8.468;2022-12-18T08:58:59;8.90;;;7.53;;
10537;SDS011;5317;49.048;8.468;2022-12-18T09:01:27;9.97;;;8.00;;
10537;SDS011;5317;49.048;8.468;2022-12-18T09:03:56;28.53;;;18.13;;
10537;SDS011;5317;49.048;8.468;2022-12-18T09:06:23;23.83;;;16.87;;
10537;SDS011;5317;49.048;8.468;2022-12-18T09:08:51;29.80;;;20.93;;
10537;SDS011;5317;49.048;8.468;2022-12-18T09:11:19;26.27;;;17.57;;
10537;SDS011;5317;49.048;8.468;2022-12-18T09:13:50;26.10;;;17.77;;
10537;SDS011;5317;49.048;8.468;2022-12-18T09:16:18;23.93;;;17.50;;
10537;SDS011;5317;49.048;8.468;2022-12-18T09:18:47;30.10;;;19.80;;
10537;SDS011;5317;49.048;8.468;2022-12-18T09:21:16;25.20;;;17.83;;
10537;SDS011;5317;49.048;8.468;2022-12-18T09:23:48;27.77;;;17.63;;
10537;SDS011;5317;49.048;8.468;2022-12-18T09:26:20;22.33;;;15.77;;
10537;SDS011;5317;49.048;8.468;2022-12-18T09:28:48;23.37;;;15.73;;
10537;SDS011;5317;49.048;8.468;2022-12-18T09:31:16;22.40;;;14.90;;
10537;SDS011;5317;49.048;8.468;2022-12-18T09:33:46;20.80;;;14.30;;
10537;SDS011;5317;49.048;8.468;2022-12-18T09:36:14;21.27;;;14.30;;
10537;SDS011;5317;49.048;8.468;2022-12-18T09:38:44;18.30;;;14.30;;
10537;SDS011;5317;49.048;8.468;2022-12-18T09:41:17;19.97;;;13.40;;
10537;SDS011;5317;49.048;8.468;2022-12-18T09:44:09;19.40;;;13.40;;
10537;SDS011;5317;49.048;8.468;2022-12-18T09:46:47;17.47;;;13.37;;
10537;SDS011;5317;49.048;8.468;2022-12-18T09:49:26;15.43;;;12.57;;
10537;SDS011;5317;49.048;8.468;2022-12-18T09:52:09;18.17;;;13.13;;
10537;SDS011;5317;49.048;8.468;2022-12-18T09:54:46;16.07;;;12.30;;
10537;SDS011;5317;49.048;8.468;2022-12-18T09:57:20;28.40;;;13.40;;
10537;SDS011;5317;49.048;8.468;2022-12-18T09:59:53;16.97;;;12.33;;
10537;SDS011;5317;49.048;8.468;2022-12-18T10:02:26;15.47;;;11.80;;
10537;SDS011;5317;49.048;8.468;2022-12-18T10:05:04;15.60;;;11.80;;
10537;SDS011;5317;49.048;8.468;2022-12-18T10:07:40;15.27;;;12.40;;
10537;SDS011;5317;49.048;8.468;2022-12-18T10:10:24;16.43;;;11.47;;
10537;SDS011;5317;49.048;8.468;2022-12-18T10:13:05;13.27;;;10.73;;
10537;SDS011;5317;49.048;8.468;2022-12-18T10:15:48;14.07;;;11.00;;
10537;SDS011;5317;49.048;8.468;2022-12-18T10:22:34;14.67;;;11.10;;
10537;SDS011;5317;49.048;8.468;2022-12-18T10:25:21;13.03;;;10.93;;
10537;SDS011;5317;49.048;8.468;2022-12-18T10:27:56;13.67;;;10.13;;
10537;SDS011;5317;49.048;8.468;2022-12-18T10:30:46;15.93;;;10.60;;
10537;SDS011;5317;49.048;8.468;2022-12-18T10:33:16;12.90;;;10.47;;
10537;SDS011;5317;49.048;8.468;2022-12-18T10:35:48;14.83;;;11.23;;
10537;SDS011;5317;49.048;8.468;2022-12-18T10:38:22;14.43;;;11.27;;
10537;SDS011;5317;49.048;8.468;2022-12-18T10:40:54;15.47;;;10.10;;
10537;SDS011;5317;49.048;8.468;2022-12-18T10:43:24;11.30;;;9.43;;
10537;SDS011;5317;49.048;8.468;2022-12-18T10:45:59;12.63;;;10.53;;
10537;SDS011;5317;49.048;8.468;2022-12-18T10:51:42;14.30;;;10.53;;
10537;SDS011;5317;49.048;8.468;2022-12-18T11:00:22;14.47;;;10.57;;
10537;SDS011;5317;49.048;8.468;2022-12-18T11:02:55;10.60;;;9.07;;
10537;SDS011;5317;49.048;8.468;2022-12-18T11:05:26;12.83;;;9.83;;
10537;SDS011;5317;49.048;8.468;2022-12-18T11:07:57;11.77;;;9.87;;
10537;SDS011;5317;49.048;8.468;2022-12-18T11:10:29;10.63;;;9.50;;
10537;SDS011;5317;49.048;8.468;2022-12-18T11:15:50;14.73;;;10.13;;
10537;SDS011;5317;49.048;8.468;2022-12-18T11:18:20;12.07;;;10.13;;
10537;SDS011;5317;49.048;8.468;2022-12-18T11:21:12;12.93;;;10.47;;
10537;SDS011;5317;49.048;8.468;2022-12-18T11:23:46;12.90;;;9.43;;
10537;SDS011;5317;49.048;8.468;2022-12-18T11:26:18;14.37;;;10.20;;
10537;SDS011;5317;49.048;8.468;2022-12-18T11:28:47;11.73;;;9.00;;
10537;SDS011;5317;49.048;8.468;2022-12-18T11:31:21;11.33;;;9.43;;
10537;SDS011;5317;49.048;8.468;2022-12-18T11:33:59;12.33;;;9.43;;
10537;SDS011;5317;49.048;8.468;2022-12-18T11:36:33;12.07;;;9.50;;
10537;SDS011;5317;49.048;8.468;2022-12-18T11:39:09;11.13;;;9.43;;
10537;SDS011;5317;49.048;8.468;2022-12-18T11:41:48;11.57;;;8.67;;
10537;SDS011;5317;49.048;8.468;2022-12-18T11:44:38;12.03;;;9.57;;
10537;SDS011;5317;49.048;8.468;2022-12-18T11:47:18;11.63;;;9.47;;
10537;SDS011;5317;49.048;8.468;2022-12-18T11:49:55;10.40;;;9.07;;
10537;SDS011;5317;49.048;8.468;2022-12-18T11:52:27;11.50;;;8.83;;
10537;SDS011;5317;49.048;8.468;2022-12-18T11:55:04;11.80;;;8.90;;
10537;SDS011;5317;49.048;8.468;2022-12-18T11:57:46;10.40;;;9.10;;
10537;SDS011;5317;49.048;8.468;2022-12-18T12:00:24;10.63;;;9.37;;
10537;SDS011;5317;49.048;8.468;2022-12-18T12:03:03;11.60;;;8.73;;
10537;SDS011;5317;49.048;8.468;2022-12-18T12:05:56;12.17;;;8.80;;
10537;SDS011;5317;49.048;8.468;2022-12-18T12:08:54;11.40;;;8.33;;
10537;SDS011;5317;49.048;8.468;2022-12-18T12:11:40;9.67;;;8.50;;
10537;SDS011;5317;49.048;8.468;2022-12-18T12:14:42;11.63;;;9.30;;
10537;SDS011;5317;49.048;8.468;2022-12-18T12:17:32;11.53;;;9.20;;
10537;SDS011;5317;49.048;8.468;2022-12-18T12:20:26;11.23;;;8.80;;
10537;SDS011;5317;49.048;8.468;2022-12-18T12:23:15;13.23;;;8.73;;
10537;SDS011;5317;49.048;8.468;2022-12-18T12:26:26;10.30;;;8.57;;
10537;SDS011;5317;49.048;8.468;2022-12-18T12:29:23;10.93;;;8.27;;
10537;SDS011;5317;49.048;8.468;2022-12-18T12:32:32;10.67;;;7.33;;
10537;SDS011;5317;49.048;8.468;2022-12-18T12:35:36;10.27;;;8.07;;
10537;SDS011;5317;49.048;8.468;2022-12-18T12:38:35;10.47;;;8.17;;
10537;SDS011;5317;49.048;8.468;2022-12-18T12:41:20;11.00;;;8.83;;
10537;SDS011;5317;49.048;8.468;2022-12-18T12:44:09;11.93;;;9.00;;
10537;SDS011;5317;49.048;8.468;2022-12-18T12:46:46;11.00;;;7.73;;
10537;SDS011;5317;49.048;8.468;2022-12-18T12:49:17;9.70;;;7.77;;
10537;SDS011;5317;49.048;8.468;2022-12-18T12:51:56;10.43;;;7.40;;
10537;SDS011;5317;49.048;8.468;2022-12-18T12:54:37;11.27;;;8.67;;
10537;SDS011;5317;49.048;8.468;2022-12-18T12:57:05;10.23;;;7.97;;
10537;SDS011;5317;49.048;8.468;2022-12-18T12:59:47;11.60;;;9.00;;
10537;SDS011;5317;49.048;8.468;2022-12-18T13:02:28;11.60;;;8.90;;
10537;SDS011;5317;49.048;8.468;2022-12-18T13:05:09;11.43;;;8.07;;
10537;SDS011;5317;49.048;8.468;2022-12-18T13:07:54;11.00;;;8.50;;
10537;SDS011;5317;49.048;8.468;2022-12-18T13:10:32;10.07;;;8.43;;
10537;SDS011;5317;49.048;8.468;2022-12-18T13:13:03;10.40;;;7.87;;
10537;SDS011;5317;49.048;8.468;2022-12-18T13:15:33;9.77;;;8.40;;
10537;SDS011;5317;49.048;8.468;2022-12-18T13:18:16;10.07;;;7.80;;
10537;SDS011;5317;49.048;8.468;2022-12-18T13:21:02;8.47;;;7.57;;
10537;SDS011;5317;49.048;8.468;2022-12-18T13:23:52;10.97;;;7.97;;
10537;SDS011;5317;49.048;8.468;2022-12-18T13:26:39;9.00;;;7.87;;
10537;SDS011;5317;49.048;8.468;2022-12-18T13:29:07;11.40;;;8.33;;
10537;SDS011;5317;49.048;8.468;2022-12-18T13:32:22;8.10;;;7.30;;
10537;SDS011;5317;49.048;8.468;2022-12-18T13:38:19;12.40;;;7.53;;
10537;SDS011;5317;49.048;8.468;2022-12-18T13:40:56;11.83;;;7.67;;
10537;SDS011;5317;49.048;8.468;2022-12-18T13:43:38;9.70;;;7.70;;
10537;SDS011;5317;49.048;8.468;2022-12-18T13:46:21;9.80;;;7.63;;
10537;SDS011;5317;49.048;8.468;2022-12-18T13:48:55;8.17;;;7.40;;
10537;SDS011;5317;49.048;8.468;2022-12-18T13:51:27;8.40;;;7.40;;
10537;SDS011;5317;49.048;8.468;2022-12-18T13:54:10;9.57;;;7.60;;
10537;SDS011;5317;49.048;8.468;2022-12-18T13:56:56;8.50;;;7.60;;
10537;SDS011;5317;49.048;8.468;2022-12-18T13:59:32;8.90;;;7.93;;
10537;SDS011;5317;49.048;8.468;2022-12-18T14:02:07;9.83;;;7.60;;
10537;SDS011;5317;49.048;8.468;2022-12-18T14:04:41;9.10;;;6.93;;
10537;SDS011;5317;49.048;8.468;2022-12-18T14:07:17;8.70;;;7.80;;
10537;SDS011;5317;49.048;8.468;2022-12-18T14:09:53;7.57;;;6.87;;
10537;SDS011;5317;49.048;8.468;2022-12-18T14:12:31;9.13;;;8.23;;
10537;SDS011;5317;49.048;8.468;2022-12-18T14:15:20;8.40;;;7.47;;
10537;SDS011;5317;49.048;8.468;2022-12-18T14:18:00;8.20;;;7.40;;
10537;SDS011;5317;49.048;8.468;2022-12-18T14:20:47;8.30;;;6.87;;
10537;SDS011;5317;49.048;8.468;2022-12-18T14:23:28;8.50;;;7.60;;
10537;SDS011;5317;49.048;8.468;2022-12-18T14:26:20;8.40;;;7.37;;
10537;SDS011;5317;49.048;8.468;2022-12-18T14:28:55;7.73;;;6.70;;
10537;SDS011;5317;49.048;8.468;2022-12-18T14:31:23;8.10;;;7.30;;
10537;SDS011;5317;49.048;8.468;2022-12-18T14:33:53;8.30;;;7.40;;
10537;SDS011;5317;49.048;8.468;2022-12-18T14:36:21;8.57;;;7.67;;
10537;SDS011;5317;49.048;8.468;2022-12-18T14:38:53;8.67;;;7.53;;
10537;SDS011;5317;49.048;8.468;2022-12-18T14:41:22;8.27;;;7.37;;
10537;SDS011;5317;49.048;8.468;2022-12-18T14:44:06;8.10;;;7.30;;
10537;SDS011;5317;49.048;8.468;2022-12-18T14:46:38;8.10;;;7.30;;
10537;SDS011;5317;49.048;8.468;2022-12-18T14:49:17;8.63;;;7.73;;
10537;SDS011;5317;49.048;8.468;2022-12-18T14:51:52;8.87;;;7.63;;
10537;SDS011;5317;49.048;8.468;2022-12-18T14:54:25;8.27;;;7.47;;
10537;SDS011;5317;49.048;8.468;2022-12-18T14:57:02;9.17;;;8.27;;
10537;SDS011;5317;49.048;8.468;2022-12-18T14:59:48;8.00;;;7.30;;
10537;SDS011;5317;49.048;8.468;2022-12-18T15:02:20;8.00;;;7.30;;
10537;SDS011;5317;49.048;8.468;2022-12-18T15:07:59;8.20;;;7.40;;
10537;SDS011;5317;49.048;8.468;2022-12-18T15:10:56;7.90;;;7.10;;
10537;SDS011;5317;49.048;8.468;2022-12-18T15:13:27;7.80;;;7.07;;
10537;SDS011;5317;49.048;8.468;2022-12-18T15:15:54;8.23;;;7.37;;
10537;SDS011;5317;49.048;8.468;2022-12-18T15:18:32;7.63;;;6.87;;
10537;SDS011;5317;49.048;8.468;2022-12-18T15:21:16;7.80;;;7.00;;
10537;SDS011;5317;49.048;8.468;2022-12-18T15:23:47;8.30;;;7.50;;
10537;SDS011;5317;49.048;8.468;2022-12-18T15:26:18;9.60;;;7.60;;
10537;SDS011;5317;49.048;8.468;2022-12-18T15:28:48;7.80;;;7.00;;
10537;SDS011;5317;49.048;8.468;2022-12-18T15:31:28;8.30;;;7.50;;
10537;SDS011;5317;49.048;8.468;2022-12-18T15:34:01;8.90;;;7.23;;
10537;SDS011;5317;49.048;8.468;2022-12-18T15:36:53;9.30;;;8.17;;
10537;SDS011;5317;49.048;8.468;2022-12-18T15:39:20;7.97;;;6.73;;
10537;SDS011;5317;49.048;8.468;2022-12-18T15:41:51;8.50;;;7.60;;
10537;SDS011;5317;49.048;8.468;2022-12-18T15:44:39;8.10;;;7.30;;
10537;SDS011;5317;49.048;8.468;2022-12-18T15:47:10;8.03;;;7.23;;
10537;SDS011;5317;49.048;8.468;2022-12-18T15:49:41;8.20;;;7.33;;